Winter Garden, Florida
Current Conditions -  °F | °C
As of 4:53 AM on Friday 28 Nov 2014 (Local Time) from KORL Reporting Station
Clear Clear  
Wind Chill: 41°   Ceiling: Unl
Heat Index: 46°   Visibility: 10mi
Dew Point: 34°   Wind: 9mph
Humidity: 63%   Direction: 360°N
Pressure: 30.29"   Gusts: NA
Location:  28.57°N, 81.59°W
Report Text: KORL 280953Z AUTO 36008KT 10SM CLR 08/01 A3029 RMK AO2 SLP261 T00780011
Loading
Personal Weather Stations






























Interactive Weather Map New forecast layout! Learn more

10-Day Weather Forecast

Advertisements
Track Severe Weather on mobile